createdAt,value
2023-02-02T00:01:55.678Z,4.97
2023-02-02T00:04:25.012Z,3.88
2023-02-02T00:06:52.030Z,6.07
2023-02-02T00:09:20.854Z,6.75
2023-02-02T00:11:48.747Z,5.47
2023-02-02T00:14:15.283Z,7.20
2023-02-02T00:16:43.482Z,4.32
2023-02-02T00:19:26.484Z,3.65
2023-02-02T00:21:54.249Z,3.97
2023-02-02T00:24:25.365Z,5.20
2023-02-02T00:26:56.979Z,6.00
2023-02-02T00:29:26.011Z,5.18
2023-02-02T00:31:53.058Z,9.57
2023-02-02T00:34:20.448Z,5.82
2023-02-02T00:36:47.861Z,4.05
2023-02-02T00:39:18.477Z,4.70
2023-02-02T00:41:45.490Z,5.13
2023-02-02T00:44:30.521Z,4.05
2023-02-02T00:46:56.943Z,6.35
2023-02-02T00:49:23.406Z,8.70
2023-02-02T00:51:49.795Z,8.05
2023-02-02T00:54:16.300Z,5.38
2023-02-02T00:56:43.028Z,9.40
2023-02-02T00:59:09.436Z,6.78
2023-02-02T01:01:35.915Z,9.48
2023-02-02T01:04:02.363Z,6.28
2023-02-02T01:06:30.415Z,7.88
2023-02-02T01:08:56.926Z,5.30
2023-02-02T01:11:23.603Z,7.05
2023-02-02T01:13:50.010Z,7.05
2023-02-02T01:16:16.490Z,12.95
2023-02-02T01:18:43.089Z,6.28
2023-02-02T01:21:12.254Z,6.30
2023-02-02T01:23:39.301Z,10.70
2023-02-02T01:26:08.512Z,7.40
2023-02-02T01:28:35.070Z,6.47
2023-02-02T01:31:11.353Z,11.70
2023-02-02T01:33:38.233Z,3.75
2023-02-02T01:36:07.553Z,10.25
2023-02-02T01:38:34.867Z,8.30
2023-02-02T01:41:01.948Z,9.00
2023-02-02T01:43:50.322Z,12.82
2023-02-02T01:46:21.239Z,11.25
2023-02-02T01:48:56.930Z,7.47
2023-02-02T01:51:27.590Z,9.80
2023-02-02T01:53:57.303Z,9.32
2023-02-02T01:56:44.692Z,10.07
2023-02-02T01:59:12.745Z,6.97
2023-02-02T02:01:39.104Z,11.60
2023-02-02T02:04:06.235Z,11.27
2023-02-02T02:06:33.398Z,9.57
2023-02-02T02:09:03.649Z,9.40
2023-02-02T02:11:31.616Z,10.40
2023-02-02T02:14:20.035Z,9.48
2023-02-02T02:17:08.685Z,10.43
2023-02-02T02:20:31.920Z,9.65
2023-02-02T02:23:39.641Z,7.80
2023-02-02T02:26:35.761Z,8.20
2023-02-02T02:29:35.763Z,9.70
2023-02-02T02:32:39.048Z,14.35
2023-02-02T02:35:30.606Z,11.57
2023-02-02T02:38:18.843Z,8.32
2023-02-02T02:40:49.583Z,9.05
2023-02-02T02:43:24.849Z,10.20
2023-02-02T02:45:51.403Z,7.13
2023-02-02T02:48:17.845Z,7.32
2023-02-02T02:50:44.560Z,16.38
2023-02-02T02:53:21.800Z,6.57
2023-02-02T02:56:00.207Z,9.18
2023-02-02T02:58:53.514Z,8.63
2023-02-02T03:01:38.378Z,6.13
2023-02-02T03:04:18.039Z,9.30
2023-02-02T03:06:55.183Z,10.18
2023-02-02T03:09:25.652Z,11.93
2023-02-02T03:11:52.250Z,12.65
2023-02-02T03:14:18.696Z,13.93
2023-02-02T03:16:45.142Z,10.25
2023-02-02T03:19:11.656Z,12.50
2023-02-02T03:21:38.033Z,13.82
2023-02-02T03:24:04.815Z,9.05
2023-02-02T03:26:31.294Z,11.50
2023-02-02T03:28:57.810Z,22.92
2023-02-02T03:31:27.263Z,8.45
2023-02-02T03:33:55.165Z,13.30
2023-02-02T03:36:22.416Z,12.40
2023-02-02T03:38:48.866Z,10.07
2023-02-02T03:41:15.268Z,9.82
2023-02-02T03:43:41.763Z,12.70
2023-02-02T03:46:08.210Z,9.52
2023-02-02T03:48:36.974Z,14.20
2023-02-02T03:51:08.480Z,10.80
2023-02-02T03:53:35.031Z,7.55
2023-02-02T03:56:01.460Z,12.23
2023-02-02T03:58:27.870Z,12.00
2023-02-02T04:00:55.580Z,10.07
2023-02-02T04:03:21.980Z,20.65
2023-02-02T04:05:51.170Z,9.05
2023-02-02T04:08:17.539Z,9.00
2023-02-02T04:10:43.980Z,11.95
2023-02-02T04:13:11.021Z,21.75
2023-02-02T04:15:37.546Z,12.40
2023-02-02T04:18:04.079Z,8.05
2023-02-02T04:20:31.487Z,20.63
2023-02-02T04:22:57.980Z,16.30
2023-02-02T04:25:24.747Z,12.57
2023-02-02T04:27:51.370Z,17.77
2023-02-02T04:30:19.899Z,16.90
2023-02-02T04:32:46.927Z,10.43
2023-02-02T04:35:13.351Z,8.75
2023-02-02T04:37:39.740Z,9.55
2023-02-02T04:40:08.371Z,8.95
2023-02-02T04:42:35.092Z,10.25
2023-02-02T04:45:01.559Z,12.18
2023-02-02T04:47:28.169Z,9.15
2023-02-02T04:49:54.961Z,10.23
2023-02-02T04:52:21.341Z,8.15
2023-02-02T04:54:48.157Z,17.23
2023-02-02T04:57:14.565Z,11.27
2023-02-02T04:59:42.450Z,8.50
2023-02-02T05:02:09.236Z,12.02
2023-02-02T05:04:36.171Z,8.70
2023-02-02T05:07:02.740Z,10.45
2023-02-02T05:09:29.196Z,11.23
2023-02-02T05:11:55.712Z,10.32
2023-02-02T05:14:22.237Z,13.48
2023-02-02T05:16:49.990Z,18.75
2023-02-02T05:19:17.033Z,8.57
2023-02-02T05:21:44.852Z,5.78
2023-02-02T05:24:12.599Z,10.23
2023-02-02T05:26:39.283Z,6.40
2023-02-02T05:29:06.788Z,7.90
2023-02-02T05:31:33.563Z,7.65
2023-02-02T05:34:00.192Z,8.50
2023-02-02T05:36:26.784Z,8.93
2023-02-02T05:38:53.197Z,5.53
2023-02-02T05:41:19.659Z,10.90
2023-02-02T05:43:46.067Z,14.30
2023-02-02T05:46:12.666Z,10.75
2023-02-02T05:48:39.089Z,12.95
2023-02-02T05:51:16.869Z,11.52
2023-02-02T05:53:45.156Z,5.30
2023-02-02T05:56:12.827Z,7.88
2023-02-02T05:58:39.372Z,8.77
2023-02-02T06:01:05.953Z,8.02
2023-02-02T06:03:32.455Z,5.07
2023-02-02T06:06:00.148Z,9.82
2023-02-02T06:08:26.678Z,7.32
2023-02-02T06:10:53.845Z,13.68
2023-02-02T06:13:22.690Z,16.45
2023-02-02T06:15:49.203Z,16.63
2023-02-02T06:18:15.818Z,12.57
2023-02-02T06:20:42.242Z,10.25
2023-02-02T06:23:08.757Z,9.73
2023-02-02T06:25:35.219Z,10.00
2023-02-02T06:28:01.613Z,8.23
2023-02-02T06:30:28.314Z,6.53
2023-02-02T06:32:54.788Z,4.57
2023-02-02T06:35:21.584Z,6.93
2023-02-02T06:37:49.250Z,11.20
2023-02-02T06:40:16.099Z,11.43
2023-02-02T06:42:42.568Z,7.40
2023-02-02T06:45:09.605Z,8.57
2023-02-02T06:47:36.038Z,5.80
2023-02-02T06:50:02.987Z,10.05
2023-02-02T06:52:29.460Z,4.32
2023-02-02T06:54:55.892Z,9.40
2023-02-02T06:57:22.698Z,8.52
2023-02-02T06:59:50.658Z,8.82
2023-02-02T07:02:17.114Z,7.57
2023-02-02T07:04:43.908Z,7.90
2023-02-02T07:07:10.298Z,8.18
2023-02-02T07:09:36.836Z,9.50
2023-02-02T07:12:03.713Z,10.18
2023-02-02T07:14:30.183Z,7.43
2023-02-02T07:16:56.837Z,11.93
2023-02-02T07:19:23.437Z,8.25
2023-02-02T07:21:49.845Z,14.80
2023-02-02T07:24:16.316Z,7.35
2023-02-02T07:26:42.806Z,6.88
2023-02-02T07:29:13.357Z,4.63
2023-02-02T07:31:40.363Z,9.65
2023-02-02T07:34:06.945Z,7.65
2023-02-02T07:36:33.750Z,4.00
2023-02-02T07:39:03.858Z,4.85
2023-02-02T07:41:30.619Z,6.82
2023-02-02T07:43:57.045Z,3.85
2023-02-02T07:46:23.572Z,3.55
2023-02-02T07:48:53.607Z,6.68
2023-02-02T07:51:20.048Z,7.38
2023-02-02T07:53:48.966Z,6.55
2023-02-02T07:56:19.663Z,4.55
2023-02-02T07:58:47.939Z,2.65
2023-02-02T08:01:16.322Z,2.55
2023-02-02T08:03:44.175Z,6.80
2023-02-02T08:06:13.481Z,3.80
2023-02-02T08:08:40.141Z,2.00
2023-02-02T08:11:12.212Z,2.67
2023-02-02T08:13:39.595Z,4.40
2023-02-02T08:16:07.290Z,2.28
2023-02-02T08:18:35.253Z,4.13
2023-02-02T08:21:02.873Z,2.25
2023-02-02T08:23:29.385Z,3.42
2023-02-02T08:26:06.061Z,2.38
2023-02-02T08:28:32.899Z,2.30
2023-02-02T08:31:08.264Z,1.80
2023-02-02T08:33:35.078Z,1.48
2023-02-02T08:36:02.092Z,2.53
2023-02-02T08:38:28.714Z,3.47
2023-02-02T08:40:55.237Z,5.82
2023-02-02T08:43:21.626Z,1.17
2023-02-02T08:46:01.460Z,4.32
2023-02-02T08:48:30.104Z,1.60
2023-02-02T08:50:57.885Z,1.73
2023-02-02T08:53:25.483Z,2.80
2023-02-02T08:56:04.087Z,0.90
2023-02-02T08:58:31.451Z,3.38
2023-02-02T09:01:08.805Z,1.17
2023-02-02T09:03:35.738Z,1.63
2023-02-02T09:06:07.494Z,1.27
2023-02-02T09:08:34.604Z,2.33
2023-02-02T09:11:09.078Z,1.38
2023-02-02T09:13:36.922Z,0.68
2023-02-02T09:16:05.566Z,2.33
2023-02-02T09:18:32.264Z,1.55
2023-02-02T09:21:06.800Z,1.15
2023-02-02T09:23:35.375Z,2.55
2023-02-02T09:26:15.395Z,1.02
2023-02-02T09:28:44.488Z,1.20
2023-02-02T09:31:11.486Z,1.98
2023-02-02T09:33:38.469Z,0.70
2023-02-02T09:36:11.055Z,1.88
2023-02-02T09:38:38.470Z,3.67
2023-02-02T09:41:34.024Z,1.52
2023-02-02T09:44:24.929Z,11.75
2023-02-02T09:47:06.931Z,2.13
2023-02-02T09:49:53.697Z,1.23
2023-02-02T09:52:36.147Z,2.70
2023-02-02T09:55:26.906Z,1.90
2023-02-02T09:58:05.105Z,3.38
2023-02-02T10:00:34.810Z,2.92
2023-02-02T10:03:06.970Z,1.60
2023-02-02T10:05:46.503Z,1.10
2023-02-02T10:08:33.939Z,0.85
2023-02-02T10:11:08.288Z,0.60
2023-02-02T10:13:39.228Z,2.58
2023-02-02T10:16:25.298Z,2.58
2023-02-02T10:18:58.146Z,0.63
2023-02-02T10:21:42.784Z,0.68
2023-02-02T10:24:19.945Z,0.80
2023-02-02T10:27:14.642Z,0.80
2023-02-02T10:29:53.539Z,1.65
2023-02-02T10:32:38.584Z,1.65
2023-02-02T10:35:26.999Z,2.60
2023-02-02T10:38:11.370Z,1.33
2023-02-02T10:40:53.016Z,2.28
2023-02-02T10:43:54.575Z,1.52
2023-02-02T10:46:22.973Z,4.13
2023-02-02T10:48:50.134Z,2.75
2023-02-02T10:51:28.940Z,2.95
2023-02-02T10:53:58.824Z,5.80
2023-02-02T10:56:34.001Z,1.83
2023-02-02T10:59:07.288Z,2.47
2023-02-02T11:01:33.774Z,2.00
2023-02-02T11:04:18.576Z,1.55
2023-02-02T11:06:50.861Z,1.48
2023-02-02T11:09:21.072Z,4.47
2023-02-02T11:11:53.586Z,1.35
2023-02-02T11:14:31.832Z,6.82
2023-02-02T11:17:05.627Z,1.58
2023-02-02T11:19:34.499Z,3.65
2023-02-02T11:22:03.692Z,2.08
2023-02-02T11:24:36.793Z,2.15
2023-02-02T11:27:08.150Z,2.10
2023-02-02T11:29:44.560Z,1.65
2023-02-02T11:32:29.590Z,0.98
2023-02-02T11:35:01.871Z,0.80
2023-02-02T11:37:28.969Z,1.50
2023-02-02T11:40:33.912Z,0.55
2023-02-02T11:43:17.541Z,1.33
2023-02-02T11:45:49.333Z,1.00
2023-02-02T11:48:21.871Z,1.42
2023-02-02T11:50:54.542Z,1.35
2023-02-02T11:53:33.496Z,1.57
2023-02-02T11:56:05.898Z,1.42
2023-02-02T11:58:44.336Z,4.28
2023-02-02T12:01:24.893Z,4.07
2023-02-02T12:03:52.920Z,1.33
2023-02-02T12:06:21.302Z,1.27
2023-02-02T12:08:47.954Z,0.77
2023-02-02T12:11:43.733Z,0.55
2023-02-02T12:14:44.300Z,0.50
2023-02-02T12:17:33.041Z,1.25
2023-02-02T12:20:23.126Z,0.95
2023-02-02T12:23:08.854Z,2.00
2023-02-02T12:25:47.712Z,1.45
2023-02-02T12:28:44.667Z,0.85
2023-02-02T12:31:42.284Z,1.05
2023-02-02T12:34:25.066Z,2.30
2023-02-02T12:37:06.537Z,2.42
2023-02-02T12:39:44.061Z,3.85
2023-02-02T12:42:26.628Z,2.47
2023-02-02T12:45:19.883Z,1.42
2023-02-02T12:47:52.390Z,1.52
2023-02-02T12:50:43.827Z,1.00
2023-02-02T12:53:12.083Z,0.73
2023-02-02T12:56:04.498Z,1.45
2023-02-02T12:58:48.484Z,0.40
2023-02-02T13:04:08.869Z,0.60
2023-02-02T13:06:43.975Z,1.23
2023-02-02T13:09:21.455Z,1.13
2023-02-02T13:11:56.096Z,0.73
2023-02-02T13:14:34.877Z,0.98
2023-02-02T13:17:08.726Z,0.77
2023-02-02T13:19:40.234Z,1.02
2023-02-02T13:22:12.607Z,1.20
2023-02-02T13:24:42.500Z,0.73
2023-02-02T13:27:13.632Z,1.13
2023-02-02T13:29:49.982Z,1.48
2023-02-02T13:32:22.257Z,0.93
2023-02-02T13:35:12.898Z,1.35
2023-02-02T13:37:43.738Z,2.03
2023-02-02T13:40:43.414Z,1.67
2023-02-02T13:43:36.389Z,0.77
2023-02-02T13:46:23.756Z,1.40
2023-02-02T13:49:01.184Z,0.82
2023-02-02T13:51:44.289Z,1.77
2023-02-02T13:54:31.950Z,2.87
2023-02-02T13:57:24.525Z,3.08
2023-02-02T13:59:54.464Z,1.27
2023-02-02T14:02:31.714Z,1.08
2023-02-02T14:05:02.317Z,1.08
2023-02-02T14:07:33.417Z,2.10
2023-02-02T14:09:59.933Z,1.00
2023-02-02T14:12:34.172Z,2.45
2023-02-02T14:15:00.990Z,2.13
2023-02-02T14:17:33.335Z,1.48
2023-02-02T14:20:01.669Z,1.73
2023-02-02T14:22:48.099Z,1.63
2023-02-02T14:25:29.893Z,1.88
2023-02-02T14:27:59.731Z,1.45
2023-02-02T14:30:29.742Z,1.38
2023-02-02T14:33:24.760Z,1.42
2023-02-02T14:35:58.054Z,1.95
2023-02-02T14:38:31.958Z,2.05
2023-02-02T14:41:52.587Z,1.57
2023-02-02T14:44:18.998Z,1.10
2023-02-02T14:46:49.145Z,1.10
2023-02-02T14:49:18.157Z,1.63
2023-02-02T14:51:56.980Z,1.90
2023-02-02T14:54:34.559Z,0.77
2023-02-02T14:57:23.802Z,1.20
2023-02-02T14:59:55.164Z,0.75
2023-02-02T15:02:37.777Z,0.95
2023-02-02T15:05:29.075Z,1.80
2023-02-02T15:08:20.705Z,1.38
2023-02-02T15:10:56.703Z,2.55
2023-02-02T15:13:31.853Z,2.60
2023-02-02T15:16:15.064Z,1.88
2023-02-02T15:18:45.576Z,1.65
2023-02-02T15:21:17.205Z,13.73
2023-02-02T15:23:47.458Z,20.23
2023-02-02T15:26:28.220Z,6.85
2023-02-02T15:28:59.644Z,4.22
2023-02-02T15:31:46.769Z,2.78
2023-02-02T15:34:37.571Z,3.00
2023-02-02T15:37:07.299Z,3.05
2023-02-02T15:39:41.777Z,3.33
2023-02-02T15:42:35.624Z,5.55
2023-02-02T15:45:03.308Z,3.28
2023-02-02T15:47:37.670Z,1.70
2023-02-02T15:50:16.237Z,3.75
2023-02-02T15:52:48.442Z,2.60
2023-02-02T15:55:44.503Z,2.65
2023-02-02T15:58:28.307Z,2.35
2023-02-02T16:01:02.725Z,3.50
2023-02-02T16:03:35.905Z,3.55
2023-02-02T16:06:06.585Z,2.65
2023-02-02T16:08:35.088Z,3.00
2023-02-02T16:11:09.464Z,3.25
2023-02-02T16:13:37.155Z,5.43
2023-02-02T16:16:07.065Z,6.03
2023-02-02T16:18:35.473Z,4.85
2023-02-02T16:21:10.181Z,3.90
2023-02-02T16:23:37.269Z,4.95
2023-02-02T16:26:06.957Z,6.20
2023-02-02T16:28:34.560Z,4.30
2023-02-02T16:31:02.435Z,4.85
2023-02-02T16:33:43.679Z,2.53
2023-02-02T16:36:26.170Z,4.65
2023-02-02T16:38:54.858Z,6.75
2023-02-02T16:41:33.716Z,7.32
2023-02-02T16:44:29.495Z,2.40
2023-02-02T16:46:56.440Z,2.85
2023-02-02T16:49:26.155Z,4.47
2023-02-02T16:52:17.361Z,4.13
2023-02-02T16:54:54.145Z,4.00
2023-02-02T16:57:27.434Z,3.15
2023-02-02T16:59:57.430Z,4.13
2023-02-02T17:02:35.198Z,5.10
2023-02-02T17:05:06.706Z,3.08
2023-02-02T17:07:36.871Z,14.38
2023-02-02T17:10:15.249Z,2.70
2023-02-02T17:12:42.808Z,10.43
2023-02-02T17:15:22.226Z,4.68
2023-02-02T17:17:49.099Z,4.53
2023-02-02T17:20:18.874Z,7.30
2023-02-02T17:23:04.099Z,6.72
2023-02-02T17:25:37.533Z,4.00
2023-02-02T17:28:07.766Z,4.47
2023-02-02T17:30:34.423Z,5.65
2023-02-02T17:33:00.899Z,3.63
2023-02-02T17:35:34.666Z,4.57
2023-02-02T17:38:06.718Z,5.93
2023-02-02T17:40:33.495Z,4.40
2023-02-02T17:43:00.284Z,6.47
2023-02-02T17:45:34.686Z,4.82
2023-02-02T17:48:01.960Z,3.97
2023-02-02T17:50:29.352Z,4.35
2023-02-02T17:52:55.715Z,3.28
2023-02-02T17:55:27.245Z,2.05
2023-02-02T17:57:54.168Z,2.20
2023-02-02T18:00:24.662Z,2.20
2023-02-02T18:02:56.815Z,4.45
2023-02-02T18:05:24.195Z,5.47
2023-02-02T18:07:50.761Z,3.20
2023-02-02T18:10:19.244Z,2.28
2023-02-02T18:12:45.654Z,4.10
2023-02-02T18:15:14.459Z,5.25
2023-02-02T18:17:41.042Z,6.03
2023-02-02T18:20:08.357Z,5.70
2023-02-02T18:22:34.807Z,7.97
2023-02-02T18:25:01.424Z,12.43
2023-02-02T18:27:29.680Z,13.27
2023-02-02T18:29:56.289Z,6.60
2023-02-02T18:32:22.748Z,6.38
2023-02-02T18:34:54.915Z,2.00
2023-02-02T18:37:22.799Z,4.82
2023-02-02T18:39:49.210Z,7.90
2023-02-02T18:42:15.798Z,10.18
2023-02-02T18:44:42.257Z,3.38
2023-02-02T18:47:08.621Z,3.47
2023-02-02T18:49:35.588Z,3.90
2023-02-02T18:52:02.685Z,4.38
2023-02-02T18:54:30.075Z,4.78
2023-02-02T18:56:56.636Z,8.25
2023-02-02T18:59:23.072Z,7.70
2023-02-02T19:01:49.676Z,6.50
2023-02-02T19:04:16.357Z,4.93
2023-02-02T19:07:01.364Z,8.23
2023-02-02T19:09:27.793Z,6.85
2023-02-02T19:11:54.975Z,8.15
2023-02-02T19:14:27.312Z,8.73
2023-02-02T19:16:59.055Z,8.23
2023-02-02T19:19:30.371Z,4.95
2023-02-02T19:21:58.536Z,5.53
2023-02-02T19:24:26.818Z,7.93
2023-02-02T19:26:53.768Z,8.20
2023-02-02T19:29:23.405Z,5.03
2023-02-02T19:32:02.772Z,2.38
2023-02-02T19:34:29.637Z,3.13
2023-02-02T19:36:56.026Z,32.58
2023-02-02T19:39:29.069Z,23.25
2023-02-02T19:41:59.579Z,3.30
2023-02-02T19:44:30.528Z,2.08
2023-02-02T19:46:57.723Z,7.68
2023-02-02T19:49:33.917Z,9.98
2023-02-02T19:52:03.757Z,12.93
2023-02-02T19:54:40.982Z,7.47
2023-02-02T19:57:20.778Z,7.72
2023-02-02T19:59:49.860Z,8.88
2023-02-02T20:02:41.511Z,7.38
2023-02-02T20:05:10.868Z,7.15
2023-02-02T20:07:38.939Z,9.85
2023-02-02T20:10:19.442Z,7.13
2023-02-02T20:12:46.829Z,9.10
2023-02-02T20:15:27.578Z,7.15
2023-02-02T20:17:56.807Z,9.00
2023-02-02T20:20:29.741Z,7.55
2023-02-02T20:22:57.436Z,6.65
2023-02-02T20:25:24.013Z,8.05
2023-02-02T20:27:51.540Z,6.80
2023-02-02T20:30:25.366Z,7.97
2023-02-02T20:32:56.469Z,6.90
2023-02-02T20:35:27.691Z,6.50
2023-02-02T20:37:55.678Z,8.02
2023-02-02T20:40:22.204Z,6.95
2023-02-02T20:42:52.076Z,7.07
2023-02-02T20:45:18.941Z,6.85
2023-02-02T20:47:45.675Z,9.35
2023-02-02T20:50:14.730Z,5.95
2023-02-02T20:52:41.936Z,7.55
2023-02-02T20:55:09.445Z,7.28
2023-02-02T20:57:38.327Z,6.75
2023-02-02T21:00:10.492Z,5.80
2023-02-02T21:02:37.063Z,8.15
2023-02-02T21:05:04.843Z,6.38
2023-02-02T21:07:31.510Z,6.97
2023-02-02T21:09:58.450Z,5.47
2023-02-02T21:12:25.685Z,6.30
2023-02-02T21:14:56.198Z,5.82
2023-02-02T21:17:22.846Z,6.45
2023-02-02T21:19:49.305Z,7.47
2023-02-02T21:22:15.726Z,7.35
2023-02-02T21:24:42.635Z,7.68
2023-02-02T21:27:09.347Z,6.85
2023-02-02T21:29:36.016Z,7.43
2023-02-02T21:32:03.519Z,7.13
2023-02-02T21:34:31.183Z,6.78
2023-02-02T21:36:58.591Z,7.10
2023-02-02T21:39:29.401Z,6.93
2023-02-02T21:42:07.955Z,7.03
2023-02-02T21:44:46.131Z,6.10
2023-02-02T21:47:25.458Z,6.78
2023-02-02T21:49:52.835Z,5.45
2023-02-02T21:52:20.252Z,10.20
2023-02-02T21:54:48.192Z,9.20
2023-02-02T21:57:32.813Z,8.98
2023-02-02T21:59:59.434Z,9.88
2023-02-02T22:02:43.321Z,10.95
2023-02-02T22:05:35.334Z,6.90
2023-02-02T22:08:18.370Z,6.82
2023-02-02T22:10:45.257Z,7.03
2023-02-02T22:13:23.711Z,9.30
2023-02-02T22:15:52.273Z,7.85
2023-02-02T22:18:21.917Z,6.75
2023-02-02T22:20:50.770Z,7.97
2023-02-02T22:23:22.991Z,7.50
2023-02-02T22:25:52.902Z,8.35
2023-02-02T22:28:28.082Z,9.80
2023-02-02T22:30:56.276Z,8.32
2023-02-02T22:33:24.241Z,8.80
2023-02-02T22:35:50.710Z,10.35
2023-02-02T22:38:24.566Z,9.13
2023-02-02T22:40:51.947Z,7.00
2023-02-02T22:43:20.234Z,9.45
2023-02-02T22:45:47.627Z,6.07
2023-02-02T22:48:15.215Z,9.25
2023-02-02T22:50:42.329Z,10.20
2023-02-02T22:53:08.893Z,6.57
2023-02-02T22:55:35.568Z,9.82
2023-02-02T22:58:01.976Z,7.13
2023-02-02T23:00:30.836Z,9.05
2023-02-02T23:02:57.558Z,9.35
2023-02-02T23:05:25.915Z,7.00
2023-02-02T23:07:53.858Z,6.68
2023-02-02T23:10:23.138Z,14.57
2023-02-02T23:12:50.774Z,10.70
2023-02-02T23:15:19.125Z,6.75
2023-02-02T23:17:45.523Z,8.48
2023-02-02T23:20:13.922Z,8.13
2023-02-02T23:22:40.494Z,7.32
2023-02-02T23:25:07.240Z,6.57
2023-02-02T23:27:33.732Z,7.32
2023-02-02T23:30:00.200Z,7.97
2023-02-02T23:32:26.680Z,7.80
2023-02-02T23:34:53.075Z,7.35
2023-02-02T23:37:20.086Z,6.72
2023-02-02T23:39:46.855Z,6.57
2023-02-02T23:42:13.383Z,4.85
2023-02-02T23:44:40.139Z,7.65
2023-02-02T23:47:07.018Z,7.63
2023-02-02T23:49:34.351Z,7.45
2023-02-02T23:52:01.059Z,7.10
2023-02-02T23:54:28.170Z,5.22
2023-02-02T23:56:55.393Z,5.53
2023-02-02T23:59:21.946Z,4.85
